Time;durP1;ratioP1;P1;durP2;ratioP2;P2;SDS_P1;SDS_P2;PMS_P1;PMS_P2;Temp;Humidity;BMP_temperature;BMP_pressure;BME280_temperature;BME280_humidity;BME280_pressure;Samples;Min_cycle;Max_cycle;Signal;HPM_P1;HPM_P2
2021/05/08 00:00:00;;;;;;;;;16.75;16.25;;;;;;;;5014412;28;11548;-80
2021/05/08 00:02:28;;;;;;;;;21.25;21.25;;;;;;;;5015094;28;11624;-79
2021/05/08 00:04:55;;;;;;;;;22.25;22.25;;;;;;;;5010610;28;11649;-78
2021/05/08 00:07:22;;;;;;;;;16.00;13.50;;;;;;;;5021139;28;11564;-78
2021/05/08 00:09:49;;;;;;;;;7.25;7.25;;;;;;;;5021587;28;11678;-78
2021/05/08 00:12:16;;;;;;;;;9.25;9.25;;;;;;;;5011786;28;11527;-79
2021/05/08 00:14:43;;;;;;;;;9.75;9.00;;;;;;;;5020392;28;11491;-78
2021/05/08 00:17:10;;;;;;;;;10.75;10.75;;;;;;;;5022521;28;11543;-79
2021/05/08 00:19:38;;;;;;;;;8.50;7.50;;;;;;;;5011998;28;11486;-81
2021/05/08 00:22:05;;;;;;;;;9.00;7.25;;;;;;;;5012748;28;11495;-81
2021/05/08 00:24:33;;;;;;;;;7.25;7.25;;;;;;;;5019391;28;11483;-80
2021/05/08 00:27:00;;;;;;;;;8.00;8.00;;;;;;;;5020410;28;12249;-78
2021/05/08 00:29:27;;;;;;;;;12.00;8.25;;;;;;;;5018036;28;12313;-80
2021/05/08 00:31:54;;;;;;;;;9.50;6.00;;;;;;;;5021579;28;11438;-79
2021/05/08 00:34:21;;;;;;;;;15.25;10.00;;;;;;;;5018890;28;11628;-79
2021/05/08 00:36:49;;;;;;;;;6.00;6.00;;;;;;;;5017371;28;11543;-79
2021/05/08 00:39:16;;;;;;;;;8.25;8.25;;;;;;;;5014076;28;11451;-76
2021/05/08 00:41:42;;;;;;;;;8.00;5.50;;;;;;;;5020427;28;11292;-77
2021/05/08 00:44:09;;;;;;;;;10.75;10.75;;;;;;;;5020977;28;11514;-77
2021/05/08 00:46:36;;;;;;;;;10.00;10.00;;;;;;;;5013384;28;11173;-78
2021/05/08 00:49:06;;;;;;;;;10.50;10.50;;;;;;;;5015381;28;11524;-77
2021/05/08 00:51:33;;;;;;;;;11.75;10.75;;;;;;;;5012259;28;12285;-77
2021/05/08 00:54:00;;;;;;;;;8.50;8.50;;;;;;;;5018152;28;11556;-78
2021/05/08 00:56:27;;;;;;;;;11.00;11.00;;;;;;;;5018679;28;11585;-78
2021/05/08 00:58:54;;;;;;;;;14.25;12.50;;;;;;;;5012396;28;11605;-79
2021/05/08 01:01:21;;;;;;;;;12.25;11.00;;;;;;;;5019103;28;12266;-78
2021/05/08 01:03:49;;;;;;;;;7.50;7.50;;;;;;;;5009704;28;12296;-79
2021/05/08 01:06:16;;;;;;;;;8.50;7.00;;;;;;;;5020481;28;11461;-79
2021/05/08 01:08:43;;;;;;;;;8.00;8.00;;;;;;;;5018908;28;11486;-78
2021/05/08 01:11:11;;;;;;;;;5.00;5.00;;;;;;;;5020965;28;11528;-78
2021/05/08 01:13:38;;;;;;;;;11.00;8.50;;;;;;;;5019917;28;11521;-78
2021/05/08 01:16:05;;;;;;;;;7.00;7.00;;;;;;;;5016343;28;11657;-78
2021/05/08 01:18:32;;;;;;;;;11.25;10.50;;;;;;;;5012778;28;11533;-78
2021/05/08 01:21:00;;;;;;;;;12.50;8.00;;;;;;;;5017314;28;11528;-77
2021/05/08 01:23:29;;;;;;;;;11.50;10.50;;;;;;;;5022241;28;11794;-77
2021/05/08 01:25:56;;;;;;;;;12.50;11.00;;;;;;;;5021170;28;11513;-77
2021/05/08 01:28:26;;;;;;;;;10.75;10.75;;;;;;;;5019976;28;11547;-76
2021/05/08 01:30:53;;;;;;;;;9.50;8.00;;;;;;;;5014501;28;12187;-78
2021/05/08 01:33:19;;;;;;;;;10.25;8.50;;;;;;;;5053081;28;11723;-78
2021/05/08 01:35:46;;;;;;;;;8.50;8.50;;;;;;;;5024174;28;12330;-79
2021/05/08 01:38:14;;;;;;;;;6.00;6.00;;;;;;;;5022592;28;11522;-79
2021/05/08 01:40:42;;;;;;;;;7.00;7.00;;;;;;;;5021169;28;12099;-78
2021/05/08 01:43:09;;;;;;;;;7.00;6.00;;;;;;;;5023444;28;11501;-78
2021/05/08 01:45:36;;;;;;;;;10.00;10.00;;;;;;;;5014820;28;11518;-77
2021/05/08 01:48:06;;;;;;;;;11.75;10.00;;;;;;;;5022558;28;11668;-78
2021/05/08 01:50:32;;;;;;;;;7.75;7.75;;;;;;;;5024522;28;11541;-79
2021/05/08 01:53:00;;;;;;;;;9.00;8.25;;;;;;;;5022288;28;11508;-78
2021/05/08 01:55:28;;;;;;;;;7.25;7.25;;;;;;;;5021105;28;11544;-79
2021/05/08 01:57:57;;;;;;;;;9.25;7.00;;;;;;;;5019769;28;11517;-79
2021/05/08 02:00:27;;;;;;;;;10.00;10.00;;;;;;;;5020651;28;11391;-79
2021/05/08 02:02:54;;;;;;;;;12.00;7.50;;;;;;;;5023561;28;11628;-78
2021/05/08 02:05:22;;;;;;;;;8.25;8.25;;;;;;;;5053263;28;11501;-80
2021/05/08 02:07:49;;;;;;;;;5.00;5.00;;;;;;;;5022095;28;11630;-77
2021/05/08 02:10:17;;;;;;;;;7.00;7.00;;;;;;;;5022549;28;11502;-78
2021/05/08 02:12:44;;;;;;;;;6.00;6.00;;;;;;;;5020024;28;12305;-79
2021/05/08 02:15:14;;;;;;;;;6.75;6.75;;;;;;;;5023907;28;11625;-79
2021/05/08 02:17:42;;;;;;;;;8.50;8.50;;;;;;;;5014632;28;11504;-80
2021/05/08 02:20:11;;;;;;;;;6.50;6.50;;;;;;;;5021960;28;12329;-77
2021/05/08 02:22:39;;;;;;;;;10.25;10.25;;;;;;;;5019642;28;11542;-78
2021/05/08 02:25:07;;;;;;;;;6.00;6.00;;;;;;;;5022189;28;12329;-78
2021/05/08 02:27:34;;;;;;;;;6.00;6.00;;;;;;;;5014367;28;11526;-78
2021/05/08 02:30:01;;;;;;;;;9.00;6.25;;;;;;;;5015159;28;11561;-77
2021/05/08 02:32:29;;;;;;;;;7.00;7.00;;;;;;;;5018266;28;11514;-78
2021/05/08 02:34:56;;;;;;;;;7.00;7.00;;;;;;;;5019988;28;11572;-78
2021/05/08 02:37:23;;;;;;;;;7.00;7.00;;;;;;;;5022282;28;12338;-77
2021/05/08 02:39:50;;;;;;;;;3.00;1.00;;;;;;;;5013318;28;11504;-78
2021/05/08 02:42:17;;;;;;;;;6.50;6.50;;;;;;;;5020511;28;11597;-79
2021/05/08 02:44:44;;;;;;;;;6.75;5.25;;;;;;;;5019923;28;11522;-78
2021/05/08 02:47:18;;;;;;;;;6.50;6.50;;;;;;;;5019967;28;11606;-77
2021/05/08 02:49:47;;;;;;;;;6.25;6.25;;;;;;;;5021788;28;11483;-78
2021/05/08 02:52:17;;;;;;;;;5.00;5.00;;;;;;;;5021459;28;11516;-77
2021/05/08 02:54:45;;;;;;;;;5.75;5.75;;;;;;;;5021658;28;11460;-78
2021/05/08 02:57:12;;;;;;;;;11.00;6.50;;;;;;;;5019410;28;11461;-79
2021/05/08 02:59:39;;;;;;;;;6.00;6.00;;;;;;;;5022420;28;11512;-78
2021/05/08 03:02:06;;;;;;;;;6.50;6.50;;;;;;;;5017751;28;11497;-79
2021/05/08 03:04:33;;;;;;;;;6.75;6.00;;;;;;;;5015986;28;11500;-79
2021/05/08 03:07:03;;;;;;;;;7.50;6.25;;;;;;;;5021618;28;11517;-78
2021/05/08 03:09:30;;;;;;;;;9.25;8.00;;;;;;;;5016452;28;11495;-77
2021/05/08 03:11:58;;;;;;;;;8.50;6.75;;;;;;;;5021957;28;11493;-77
2021/05/08 03:14:25;;;;;;;;;6.25;5.25;;;;;;;;5018749;28;11538;-77
2021/05/08 03:16:52;;;;;;;;;10.75;8.00;;;;;;;;5012945;28;11520;-76
2021/05/08 03:19:19;;;;;;;;;7.50;6.50;;;;;;;;5022243;28;11623;-78
2021/05/08 03:21:46;;;;;;;;;8.00;8.00;;;;;;;;5020794;28;11627;-78
2021/05/08 03:24:15;;;;;;;;;4.75;4.75;;;;;;;;5019634;28;11496;-78
2021/05/08 03:26:42;;;;;;;;;6.00;6.00;;;;;;;;5018785;28;11271;-79
2021/05/08 03:29:09;;;;;;;;;7.50;7.50;;;;;;;;5017820;28;11521;-78
2021/05/08 03:31:36;;;;;;;;;7.25;7.25;;;;;;;;5038947;28;11475;-78
2021/05/08 03:34:03;;;;;;;;;7.00;7.00;;;;;;;;5022652;28;11504;-78
2021/05/08 03:36:31;;;;;;;;;6.00;6.00;;;;;;;;5021226;28;11550;-78
2021/05/08 03:38:58;;;;;;;;;7.75;7.75;;;;;;;;5020517;28;12248;-78
2021/05/08 03:41:27;;;;;;;;;6.00;6.00;;;;;;;;5019483;28;11484;-77
2021/05/08 03:43:54;;;;;;;;;7.50;7.50;;;;;;;;5019465;28;12296;-78
2021/05/08 03:46:21;;;;;;;;;6.00;5.25;;;;;;;;5019140;28;12347;-78
2021/05/08 03:48:48;;;;;;;;;10.75;8.50;;;;;;;;5012127;28;11496;-78
2021/05/08 03:51:15;;;;;;;;;7.75;5.75;;;;;;;;5010994;28;11275;-78
2021/05/08 03:53:41;;;;;;;;;10.25;7.50;;;;;;;;5017938;28;11501;-78
2021/05/08 03:56:09;;;;;;;;;6.75;6.75;;;;;;;;5018539;28;11495;-77
2021/05/08 03:58:37;;;;;;;;;6.75;6.75;;;;;;;;5019675;28;11494;-78
2021/05/08 04:01:04;;;;;;;;;7.00;7.00;;;;;;;;5012336;28;11200;-78
2021/05/08 04:03:31;;;;;;;;;6.25;3.75;;;;;;;;5019557;28;11170;-78
2021/05/08 04:05:58;;;;;;;;;4.25;4.25;;;;;;;;5016607;28;11286;-77
2021/05/08 04:08:25;;;;;;;;;10.25;7.75;;;;;;;;5021946;28;11139;-77
2021/05/08 04:10:52;;;;;;;;;6.25;6.25;;;;;;;;5018901;28;11508;-76
2021/05/08 04:13:19;;;;;;;;;6.00;6.00;;;;;;;;5021377;28;11229;-77
2021/05/08 04:15:47;;;;;;;;;6.00;6.00;;;;;;;;5017961;28;11077;-77
2021/05/08 04:18:14;;;;;;;;;7.25;7.25;;;;;;;;5019297;28;11501;-78
2021/05/08 04:20:41;;;;;;;;;7.75;7.75;;;;;;;;5015048;28;11539;-78
2021/05/08 04:23:08;;;;;;;;;7.00;7.00;;;;;;;;5021212;28;11490;-78
2021/05/08 04:25:35;;;;;;;;;7.00;7.00;;;;;;;;5019372;28;11449;-78
2021/05/08 04:28:01;;;;;;;;;7.50;7.50;;;;;;;;5017689;28;11520;-78
2021/05/08 04:30:31;;;;;;;;;8.75;7.75;;;;;;;;5019045;28;11172;-76
2021/05/08 04:32:59;;;;;;;;;9.00;8.75;;;;;;;;5014673;28;11496;-78
2021/05/08 04:35:26;;;;;;;;;7.00;7.00;;;;;;;;5020709;28;11570;-77
2021/05/08 04:37:53;;;;;;;;;9.25;9.25;;;;;;;;5020072;28;12133;-81
2021/05/08 04:40:20;;;;;;;;;8.50;5.25;;;;;;;;5021818;28;11546;-81
2021/05/08 04:42:46;;;;;;;;;8.75;8.75;;;;;;;;5021035;28;11230;-80
2021/05/08 04:45:14;;;;;;;;;8.50;8.50;;;;;;;;5017510;28;11568;-81
2021/05/08 04:47:43;;;;;;;;;9.25;9.25;;;;;;;;5022698;28;11664;-78
2021/05/08 04:50:13;;;;;;;;;12.00;12.00;;;;;;;;5019843;28;11560;-80
2021/05/08 04:52:40;;;;;;;;;14.00;14.00;;;;;;;;5020224;28;11687;-79
2021/05/08 04:55:08;;;;;;;;;14.50;14.50;;;;;;;;5018204;28;11580;-77
2021/05/08 04:57:35;;;;;;;;;18.25;16.25;;;;;;;;5023922;28;11643;-81
2021/05/08 05:00:02;;;;;;;;;17.50;17.50;;;;;;;;5025034;28;11546;-80
2021/05/08 05:02:29;;;;;;;;;20.25;20.25;;;;;;;;5023725;28;12257;-78
2021/05/08 05:04:56;;;;;;;;;22.75;22.50;;;;;;;;5025674;28;11544;-77
2021/05/08 05:07:24;;;;;;;;;19.75;19.75;;;;;;;;5023175;28;11540;-79
2021/05/08 05:09:50;;;;;;;;;22.50;22.50;;;;;;;;5025540;28;11650;-79
2021/05/08 05:12:17;;;;;;;;;20.25;20.25;;;;;;;;5021958;28;12434;-80
2021/05/08 05:14:45;;;;;;;;;15.75;15.75;;;;;;;;5030427;28;11512;-79
2021/05/08 05:17:12;;;;;;;;;19.75;15.75;;;;;;;;5029613;28;11550;-78
2021/05/08 05:19:38;;;;;;;;;12.25;12.25;;;;;;;;5028513;28;11545;-78
2021/05/08 05:22:06;;;;;;;;;14.25;14.25;;;;;;;;5030510;28;11503;-80
2021/05/08 05:24:34;;;;;;;;;8.25;8.25;;;;;;;;5028019;28;11528;-80
2021/05/08 05:27:01;;;;;;;;;8.25;8.25;;;;;;;;5026215;28;11170;-79
2021/05/08 05:29:28;;;;;;;;;6.50;6.50;;;;;;;;5027038;28;10999;-80
2021/05/08 05:31:55;;;;;;;;;10.50;9.00;;;;;;;;5028052;28;10867;-80
2021/05/08 05:34:22;;;;;;;;;9.00;7.50;;;;;;;;5027668;28;11038;-81
2021/05/08 05:36:48;;;;;;;;;4.50;4.50;;;;;;;;5027504;28;10831;-80
2021/05/08 05:39:15;;;;;;;;;4.00;4.00;;;;;;;;5025855;28;10772;-80
2021/05/08 05:41:43;;;;;;;;;4.00;4.00;;;;;;;;5024255;28;10783;-79
2021/05/08 05:44:10;;;;;;;;;5.00;5.00;;;;;;;;5024485;28;10856;-83
2021/05/08 05:46:37;;;;;;;;;7.00;7.00;;;;;;;;5020896;28;10673;-81
2021/05/08 05:49:04;;;;;;;;;6.00;6.00;;;;;;;;5024266;28;10802;-77
2021/05/08 05:51:31;;;;;;;;;6.75;6.75;;;;;;;;5023916;28;10739;-78
2021/05/08 05:53:58;;;;;;;;;5.00;5.00;;;;;;;;5031251;28;10641;-74
2021/05/08 05:56:26;;;;;;;;;10.25;8.00;;;;;;;;5019191;28;10664;-75
2021/05/08 05:58:55;;;;;;;;;7.75;7.75;;;;;;;;5022316;28;10831;-78
2021/05/08 06:01:22;;;;;;;;;4.50;4.50;;;;;;;;5024313;28;10705;-81
2021/05/08 06:03:50;;;;;;;;;6.00;6.00;;;;;;;;5023096;28;11468;-76
2021/05/08 06:06:17;;;;;;;;;7.00;6.75;;;;;;;;5022623;28;11340;-78
2021/05/08 06:08:44;;;;;;;;;8.00;8.00;;;;;;;;5019323;28;10517;-77
2021/05/08 06:11:11;;;;;;;;;7.75;7.75;;;;;;;;5023292;28;10592;-77
2021/05/08 06:13:38;;;;;;;;;7.00;7.00;;;;;;;;5021523;28;11008;-76
2021/05/08 06:16:07;;;;;;;;;3.25;3.25;;;;;;;;5023507;28;10480;-76
2021/05/08 06:18:34;;;;;;;;;3.00;3.00;;;;;;;;5024561;28;10338;-78
2021/05/08 06:21:00;;;;;;;;;7.00;4.00;;;;;;;;5022705;28;10280;-81
2021/05/08 06:23:28;;;;;;;;;6.00;6.00;;;;;;;;5021192;28;10282;-79
2021/05/08 06:25:55;;;;;;;;;6.75;4.00;;;;;;;;5033375;28;11000;-78
2021/05/08 06:28:22;;;;;;;;;5.75;4.00;;;;;;;;5030911;28;10246;-78
2021/05/08 06:30:49;;;;;;;;;7.00;7.00;;;;;;;;5031415;28;10177;-78
2021/05/08 06:33:17;;;;;;;;;5.00;5.00;;;;;;;;5034769;28;10318;-77
2021/05/08 06:35:44;;;;;;;;;7.00;7.00;;;;;;;;5029728;28;10344;-76
2021/05/08 06:38:11;;;;;;;;;7.25;7.25;;;;;;;;5024555;28;10363;-79
2021/05/08 06:40:38;;;;;;;;;7.50;7.50;;;;;;;;5024768;28;10511;-71
2021/05/08 06:43:05;;;;;;;;;8.25;8.25;;;;;;;;5030744;28;10703;-79
2021/05/08 06:45:32;;;;;;;;;4.25;4.25;;;;;;;;5031131;28;10614;-77
2021/05/08 06:48:00;;;;;;;;;8.00;8.00;;;;;;;;5022083;28;10341;-75
2021/05/08 06:50:28;;;;;;;;;6.00;6.00;;;;;;;;5031054;28;10684;-76
2021/05/08 06:52:55;;;;;;;;;7.25;7.25;;;;;;;;5020479;28;10446;-74
2021/05/08 06:55:22;;;;;;;;;3.50;3.50;;;;;;;;5020793;28;11463;-76
2021/05/08 06:57:50;;;;;;;;;6.00;6.00;;;;;;;;5029832;28;10481;-74
2021/05/08 07:00:17;;;;;;;;;7.50;7.00;;;;;;;;5028470;28;10559;-78
2021/05/08 07:02:45;;;;;;;;;8.75;7.00;;;;;;;;5025484;28;10523;-77
2021/05/08 07:05:12;;;;;;;;;8.25;8.25;;;;;;;;5014795;28;10486;-75
2021/05/08 07:07:40;;;;;;;;;7.25;7.25;;;;;;;;5017278;28;10489;-78
2021/05/08 07:10:08;;;;;;;;;6.50;6.00;;;;;;;;5018109;28;11227;-77
2021/05/08 07:12:35;;;;;;;;;7.25;7.25;;;;;;;;5015687;28;10433;-71
2021/05/08 07:15:02;;;;;;;;;7.50;7.50;;;;;;;;5015892;28;10500;-80
2021/05/08 07:17:29;;;;;;;;;6.00;6.00;;;;;;;;5028612;28;10568;-77
2021/05/08 07:19:56;;;;;;;;;6.75;6.25;;;;;;;;5019204;28;10605;-78
2021/05/08 07:22:23;;;;;;;;;9.00;8.00;;;;;;;;5020507;28;10354;-74
2021/05/08 07:24:51;;;;;;;;;8.25;6.50;;;;;;;;5019928;28;10438;-75
2021/05/08 07:27:21;;;;;;;;;8.00;6.50;;;;;;;;5047298;28;10359;-75
2021/05/08 07:29:47;;;;;;;;;8.00;6.50;;;;;;;;5020325;28;10210;-75
2021/05/08 07:32:14;;;;;;;;;5.25;5.25;;;;;;;;5026724;28;10241;-73
2021/05/08 07:34:41;;;;;;;;;4.25;4.25;;;;;;;;5027825;28;10325;-74
2021/05/08 07:37:08;;;;;;;;;5.25;5.25;;;;;;;;5037499;28;11026;-73
2021/05/08 07:39:35;;;;;;;;;3.50;3.50;;;;;;;;5031549;28;10211;-75
2021/05/08 07:42:03;;;;;;;;;5.00;5.00;;;;;;;;5026278;28;10040;-75
2021/05/08 07:44:30;;;;;;;;;5.50;5.00;;;;;;;;5034085;28;9958;-73
2021/05/08 07:46:59;;;;;;;;;5.00;5.00;;;;;;;;5030496;28;10059;-77
2021/05/08 07:49:26;;;;;;;;;6.25;4.00;;;;;;;;5034862;28;10000;-74
2021/05/08 07:51:54;;;;;;;;;6.50;6.50;;;;;;;;5033665;28;9896;-75
2021/05/08 07:54:22;;;;;;;;;7.00;7.00;;;;;;;;5027716;28;9814;-75
2021/05/08 07:56:49;;;;;;;;;4.75;4.75;;;;;;;;5032446;28;9722;-72
2021/05/08 07:59:17;;;;;;;;;5.00;5.00;;;;;;;;5025232;28;10228;-76
2021/05/08 08:01:44;;;;;;;;;5.75;4.00;;;;;;;;5030298;28;11073;-76
2021/05/08 08:04:11;;;;;;;;;5.00;5.00;;;;;;;;5036024;28;9591;-77
2021/05/08 08:06:38;;;;;;;;;5.75;5.75;;;;;;;;5034275;28;9666;-76
2021/05/08 08:09:05;;;;;;;;;5.50;4.00;;;;;;;;5028016;28;10348;-73
2021/05/08 08:11:32;;;;;;;;;4.50;4.50;;;;;;;;5021158;28;9497;-74
2021/05/08 08:14:00;;;;;;;;;6.00;6.00;;;;;;;;5025438;28;9654;-74
2021/05/08 08:16:29;;;;;;;;;3.67;3.67;;;;;;;;5033779;28;9364;-71
2021/05/08 08:18:56;;;;;;;;;6.67;5.00;;;;;;;;5036009;28;10066;-77
2021/05/08 08:21:23;;;;;;;;;8.00;6.00;;;;;;;;5034797;28;9331;-76
2021/05/08 08:23:51;;;;;;;;;6.00;6.00;;;;;;;;5032232;28;9359;-76
2021/05/08 08:26:17;;;;;;;;;4.00;4.00;;;;;;;;5028382;28;9279;-76
2021/05/08 08:28:45;;;;;;;;;10.67;6.33;;;;;;;;5026815;28;10128;-71
2021/05/08 08:31:11;;;;;;;;;5.67;5.67;;;;;;;;5057950;28;9229;-70
2021/05/08 08:33:39;;;;;;;;;2.67;2.67;;;;;;;;5027974;28;9290;-75
2021/05/08 08:36:07;;;;;;;;;4.00;4.00;;;;;;;;5024963;28;9209;-76
2021/05/08 08:38:34;;;;;;;;;8.00;5.33;;;;;;;;5024823;28;9188;-76
2021/05/08 08:41:01;;;;;;;;;1.67;1.67;;;;;;;;5024298;28;9307;-74
2021/05/08 08:43:28;;;;;;;;;5.00;5.00;;;;;;;;5047387;28;8967;-77
2021/05/08 08:45:56;;;;;;;;;6.67;5.00;;;;;;;;5024067;28;9012;-74
2021/05/08 08:48:24;;;;;;;;;7.33;5.33;;;;;;;;5026155;28;9026;-73
2021/05/08 08:50:52;;;;;;;;;5.00;5.00;;;;;;;;5024747;28;9025;-75
2021/05/08 08:53:19;;;;;;;;;5.67;5.00;;;;;;;;5024833;28;8896;-70
2021/05/08 08:55:53;;;;;;;;;5.50;5.50;;;;;;;;5025011;28;8953;-76
2021/05/08 08:58:26;;;;;;;;;6.00;6.00;;;;;;;;5020094;28;8950;-74
2021/05/08 09:00:55;;;;;;;;;5.00;5.00;;;;;;;;5015842;28;8982;-76
2021/05/08 09:03:22;;;;;;;;;4.33;4.33;;;;;;;;5024791;28;9953;-74
2021/05/08 09:05:49;;;;;;;;;4.75;4.75;;;;;;;;5021058;28;8975;-73
2021/05/08 09:08:17;;;;;;;;;4.33;4.33;;;;;;;;5017658;28;8860;-76
2021/05/08 09:10:44;;;;;;;;;4.33;4.33;;;;;;;;5021240;28;8953;-77
2021/05/08 09:13:16;;;;;;;;;5.00;5.00;;;;;;;;5017222;28;9021;-81
2021/05/08 09:15:46;;;;;;;;;6.00;4.75;;;;;;;;5018926;28;8960;-78
2021/05/08 09:18:31;;;;;;;;;5.00;5.00;;;;;;;;5022098;28;8906;-77
2021/05/08 09:20:59;;;;;;;;;5.25;5.00;;;;;;;;5024586;28;8895;-75
2021/05/08 09:23:31;;;;;;;;;4.00;4.00;;;;;;;;5025020;28;9010;-76
2021/05/08 09:26:04;;;;;;;;;5.00;5.00;;;;;;;;5041426;28;9647;-75
2021/05/08 09:28:33;;;;;;;;;5.25;5.25;;;;;;;;5021920;28;8883;-75
2021/05/08 09:31:00;;;;;;;;;5.00;4.00;;;;;;;;5022383;28;8792;-75
2021/05/08 09:33:28;;;;;;;;;4.25;4.25;;;;;;;;5014409;28;9019;-75
2021/05/08 09:36:03;;;;;;;;;6.25;5.50;;;;;;;;5018372;28;8875;-78
2021/05/08 09:38:35;;;;;;;;;6.50;5.50;;;;;;;;5020330;28;8998;-76
2021/05/08 09:41:03;;;;;;;;;5.25;3.00;;;;;;;;5024327;28;8936;-77
2021/05/08 09:43:30;;;;;;;;;5.00;5.00;;;;;;;;5020108;28;9069;-84
2021/05/08 09:45:58;;;;;;;;;5.75;5.75;;;;;;;;5019764;28;8900;-74
2021/05/08 09:48:27;;;;;;;;;6.25;5.00;;;;;;;;5022738;28;8855;-74
2021/05/08 09:50:55;;;;;;;;;5.50;4.00;;;;;;;;5020407;28;8863;-75
2021/05/08 09:53:30;;;;;;;;;6.00;5.50;;;;;;;;5032980;28;8898;-77
2021/05/08 09:55:58;;;;;;;;;6.50;6.50;;;;;;;;5038241;28;9655;-75
2021/05/08 09:58:26;;;;;;;;;8.00;7.75;;;;;;;;5031356;28;8894;-77
2021/05/08 10:00:53;;;;;;;;;7.00;6.67;;;;;;;;5026232;28;8810;-74
2021/05/08 10:03:21;;;;;;;;;5.50;5.50;;;;;;;;5026789;28;8902;-74
2021/05/08 10:05:54;;;;;;;;;8.75;8.75;;;;;;;;5028485;28;8866;-80
2021/05/08 10:08:21;;;;;;;;;5.25;5.25;;;;;;;;5020544;28;8866;-74
2021/05/08 10:10:48;;;;;;;;;5.00;5.00;;;;;;;;5022274;28;8875;-73
2021/05/08 10:13:16;;;;;;;;;10.50;10.50;;;;;;;;5020703;28;9018;-74
2021/05/08 10:15:43;;;;;;;;;8.50;6.75;;;;;;;;5025580;28;8868;-75
2021/05/08 10:18:12;;;;;;;;;5.25;5.25;;;;;;;;5026862;28;9011;-74
2021/05/08 10:20:40;;;;;;;;;4.25;4.25;;;;;;;;5030824;28;8865;-76
2021/05/08 10:23:08;;;;;;;;;5.00;5.00;;;;;;;;5023467;28;8872;-75
2021/05/08 10:25:36;;;;;;;;;5.25;5.25;;;;;;;;5021614;28;8936;-72
2021/05/08 10:28:04;;;;;;;;;4.50;4.50;;;;;;;;5021073;28;8864;-76
2021/05/08 10:30:34;;;;;;;;;5.00;5.00;;;;;;;;5020154;28;8792;-74
2021/05/08 10:33:06;;;;;;;;;5.00;5.00;;;;;;;;5022409;28;9684;-75
2021/05/08 10:35:41;;;;;;;;;6.50;6.00;;;;;;;;5026367;28;8892;-76
2021/05/08 10:38:11;;;;;;;;;8.00;6.00;;;;;;;;5015931;28;8883;-74
2021/05/08 10:41:02;;;;;;;;;5.00;5.00;;;;;;;;5022406;28;8872;-77
2021/05/08 10:43:43;;;;;;;;;5.75;5.75;;;;;;;;5018980;28;8907;-75
2021/05/08 10:46:12;;;;;;;;;5.75;5.75;;;;;;;;5012774;28;8864;-76
2021/05/08 10:48:39;;;;;;;;;5.25;4.25;;;;;;;;5020875;28;8880;-75
2021/05/08 10:51:07;;;;;;;;;7.00;7.00;;;;;;;;5032315;28;8923;-76
2021/05/08 10:53:51;;;;;;;;;6.00;6.00;;;;;;;;5028544;28;8969;-76
2021/05/08 10:56:32;;;;;;;;;6.00;6.00;;;;;;;;5028224;28;9479;-74
2021/05/08 10:59:06;;;;;;;;;5.50;5.50;;;;;;;;5023265;28;8994;-74
2021/05/08 11:01:42;;;;;;;;;5.50;5.50;;;;;;;;5024183;28;8843;-77
2021/05/08 11:04:09;;;;;;;;;7.00;7.00;;;;;;;;5024203;28;8856;-73
2021/05/08 11:06:36;;;;;;;;;7.50;7.50;;;;;;;;5021170;28;8875;-75
2021/05/08 11:09:03;;;;;;;;;6.00;6.00;;;;;;;;5024214;28;8876;-76
2021/05/08 11:11:47;;;;;;;;;7.00;7.00;;;;;;;;5024125;28;8878;-76
2021/05/08 11:14:14;;;;;;;;;6.25;6.25;;;;;;;;5019144;28;8900;-73
2021/05/08 11:16:59;;;;;;;;;7.50;6.75;;;;;;;;5022900;28;9656;-76
2021/05/08 11:19:26;;;;;;;;;7.00;7.00;;;;;;;;5019568;28;8863;-77
2021/05/08 11:22:07;;;;;;;;;9.50;9.50;;;;;;;;5018027;28;8840;-78
2021/05/08 11:24:39;;;;;;;;;6.50;6.00;;;;;;;;5023974;28;8894;-76
2021/05/08 11:27:21;;;;;;;;;5.75;5.75;;;;;;;;5019310;28;8871;-77
2021/05/08 11:29:48;;;;;;;;;9.50;8.25;;;;;;;;5016126;28;8897;-75
2021/05/08 11:32:16;;;;;;;;;6.00;6.00;;;;;;;;5017522;28;8827;-72
2021/05/08 11:34:44;;;;;;;;;8.75;8.75;;;;;;;;5015821;28;8965;-78
2021/05/08 11:37:14;;;;;;;;;7.50;7.50;;;;;;;;5020371;28;8883;-77
2021/05/08 11:39:42;;;;;;;;;11.75;10.75;;;;;;;;5018440;28;8891;-77
2021/05/08 11:42:14;;;;;;;;;11.50;10.25;;;;;;;;5020278;28;8868;-76
2021/05/08 11:44:41;;;;;;;;;7.00;7.00;;;;;;;;5014815;28;8866;-77
2021/05/08 11:49:56;;;;;;;;;10.00;10.00;;;;;;;;5015360;28;8864;-78
2021/05/08 11:52:36;;;;;;;;;7.50;7.50;;;;;;;;5017451;28;8895;-73
2021/05/08 11:55:05;;;;;;;;;9.00;9.00;;;;;;;;5019131;28;8860;-86
2021/05/08 11:57:34;;;;;;;;;11.25;10.00;;;;;;;;5019338;28;8888;-76
2021/05/08 12:00:17;;;;;;;;;7.75;7.25;;;;;;;;5020037;28;8872;-73
2021/05/08 12:02:44;;;;;;;;;3.75;3.75;;;;;;;;5010347;28;8885;-74
2021/05/08 12:05:12;;;;;;;;;5.00;5.00;;;;;;;;5020925;28;9285;-73
2021/05/08 12:07:41;;;;;;;;;8.50;8.50;;;;;;;;5017396;28;8859;-75
2021/05/08 12:10:15;;;;;;;;;9.50;8.75;;;;;;;;5019822;28;8902;-73
2021/05/08 12:12:50;;;;;;;;;8.75;8.75;;;;;;;;5019916;28;8864;-75
2021/05/08 12:15:22;;;;;;;;;7.00;7.00;;;;;;;;5018152;28;9529;-75
2021/05/08 12:17:49;;;;;;;;;5.00;5.00;;;;;;;;5015005;28;8868;-75
2021/05/08 12:20:20;;;;;;;;;10.00;8.00;;;;;;;;5021183;28;8885;-76
2021/05/08 12:22:47;;;;;;;;;7.25;7.25;;;;;;;;5018655;28;8883;-78
2021/05/08 12:25:16;;;;;;;;;5.75;5.25;;;;;;;;5021777;28;8860;-78
2021/05/08 12:27:43;;;;;;;;;7.00;7.00;;;;;;;;5019582;28;8867;-78
2021/05/08 12:30:12;;;;;;;;;4.50;4.50;;;;;;;;5014038;28;8872;-76
2021/05/08 12:32:49;;;;;;;;;8.00;8.00;;;;;;;;5012180;28;8872;-75
2021/05/08 12:35:19;;;;;;;;;4.75;4.75;;;;;;;;5013964;28;8888;-74
2021/05/08 12:37:46;;;;;;;;;5.25;5.25;;;;;;;;5013217;28;8879;-75
2021/05/08 12:40:14;;;;;;;;;3.00;3.00;;;;;;;;5019873;28;9614;-79
2021/05/08 12:42:45;;;;;;;;;7.00;5.00;;;;;;;;5019022;28;9670;-76
2021/05/08 12:45:13;;;;;;;;;4.00;4.00;;;;;;;;5011706;28;8990;-75
2021/05/08 12:47:41;;;;;;;;;5.25;5.25;;;;;;;;5022160;28;8853;-73
2021/05/08 12:50:11;;;;;;;;;6.50;4.50;;;;;;;;5020232;28;8852;-74
2021/05/08 12:52:40;;;;;;;;;5.00;5.00;;;;;;;;5022035;28;8891;-76
2021/05/08 12:55:22;;;;;;;;;5.25;5.25;;;;;;;;5032353;28;8873;-76
2021/05/08 12:57:49;;;;;;;;;6.75;4.75;;;;;;;;5022244;28;9650;-76
2021/05/08 13:00:17;;;;;;;;;3.75;3.75;;;;;;;;5027032;28;8867;-77
2021/05/08 13:02:45;;;;;;;;;4.25;4.25;;;;;;;;5023188;28;8869;-77
2021/05/08 13:05:13;;;;;;;;;4.50;4.50;;;;;;;;5024621;28;9010;-75
2021/05/08 13:07:59;;;;;;;;;4.00;4.00;;;;;;;;5031133;28;8853;-75
2021/05/08 13:10:28;;;;;;;;;5.40;2.40;;;;;;;;5039478;28;8880;-78
2021/05/08 13:12:57;;;;;;;;;7.00;4.00;;;;;;;;5020627;28;8856;-74
2021/05/08 13:15:26;;;;;;;;;5.40;5.40;;;;;;;;5022353;28;8888;-77
2021/05/08 13:17:53;;;;;;;;;5.80;5.20;;;;;;;;5018017;28;9919;-78
2021/05/08 13:20:22;;;;;;;;;3.00;3.00;;;;;;;;5028592;28;8865;-77
2021/05/08 13:22:51;;;;;;;;;3.60;3.60;;;;;;;;5037494;28;8880;-77
2021/05/08 13:25:20;;;;;;;;;6.00;5.00;;;;;;;;5029874;28;8963;-76
2021/05/08 13:27:48;;;;;;;;;5.40;4.00;;;;;;;;5033121;28;8892;-77
2021/05/08 13:30:17;;;;;;;;;5.00;4.40;;;;;;;;5027654;28;8972;-77
2021/05/08 13:32:46;;;;;;;;;4.25;4.25;;;;;;;;5028033;28;8879;-74
2021/05/08 13:35:13;;;;;;;;;5.40;4.00;;;;;;;;5026510;28;8884;-74
2021/05/08 13:37:39;;;;;;;;;5.20;3.60;;;;;;;;5025113;28;8852;-78
2021/05/08 13:40:09;;;;;;;;;3.00;3.00;;;;;;;;5033389;28;8892;-75
2021/05/08 13:42:36;;;;;;;;;4.20;4.20;;;;;;;;5037694;28;8881;-76
2021/05/08 13:45:03;;;;;;;;;3.80;3.00;;;;;;;;5031131;28;8880;-78
2021/05/08 13:47:30;;;;;;;;;4.20;2.80;;;;;;;;5034550;28;8852;-77
2021/05/08 13:49:58;;;;;;;;;3.00;3.00;;;;;;;;5034657;28;8869;-78
2021/05/08 13:52:27;;;;;;;;;4.20;4.20;;;;;;;;5037915;28;9030;-78
2021/05/08 13:54:55;;;;;;;;;6.20;5.00;;;;;;;;5026952;28;9638;-77
2021/05/08 13:57:23;;;;;;;;;2.80;2.20;;;;;;;;5032706;28;8869;-74
2021/05/08 13:59:58;;;;;;;;;3.00;3.00;;;;;;;;5030803;28;8865;-74
2021/05/08 14:02:25;;;;;;;;;3.00;3.00;;;;;;;;5030031;28;8812;-79
2021/05/08 14:04:52;;;;;;;;;3.40;3.40;;;;;;;;5025837;28;8876;-79
2021/05/08 14:07:19;;;;;;;;;4.60;4.60;;;;;;;;5017348;28;8876;-71
2021/05/08 14:09:47;;;;;;;;;4.00;4.00;;;;;;;;5023770;28;8840;-76
2021/05/08 14:12:14;;;;;;;;;5.40;4.00;;;;;;;;5022598;28;8994;-76
2021/05/08 14:14:42;;;;;;;;;4.40;4.40;;;;;;;;5021776;28;8859;-77
2021/05/08 14:17:09;;;;;;;;;5.60;4.00;;;;;;;;5020388;28;8879;-77
2021/05/08 14:19:36;;;;;;;;;3.80;3.80;;;;;;;;5022598;28;9002;-77
2021/05/08 14:22:03;;;;;;;;;4.00;4.00;;;;;;;;5023641;28;8890;-78
2021/05/08 14:24:30;;;;;;;;;3.80;3.80;;;;;;;;5026409;28;8978;-75
2021/05/08 14:26:57;;;;;;;;;3.80;3.00;;;;;;;;5023722;28;8957;-74
2021/05/08 14:29:23;;;;;;;;;3.00;3.00;;;;;;;;5024750;28;8864;-77
2021/05/08 14:31:51;;;;;;;;;3.80;3.80;;;;;;;;5023045;28;9768;-76
2021/05/08 14:34:19;;;;;;;;;2.40;2.40;;;;;;;;5027486;28;8880;-76
2021/05/08 14:36:46;;;;;;;;;4.80;3.00;;;;;;;;5019637;28;9698;-76
2021/05/08 14:39:13;;;;;;;;;4.60;3.60;;;;;;;;5017674;28;9010;-73
2021/05/08 14:41:41;;;;;;;;;3.60;3.60;;;;;;;;5009999;28;8925;-72
2021/05/08 14:44:08;;;;;;;;;2.60;2.60;;;;;;;;5021633;28;8874;-73
2021/05/08 14:46:36;;;;;;;;;2.60;2.60;;;;;;;;5017735;28;8927;-72
2021/05/08 14:49:04;;;;;;;;;3.00;3.00;;;;;;;;5024124;28;8867;-71
2021/05/08 14:51:32;;;;;;;;;3.00;3.00;;;;;;;;5025631;28;8901;-74
2021/05/08 14:53:59;;;;;;;;;3.00;3.00;;;;;;;;5027282;28;8918;-75